Terminal Aerodrome Forecast
Issued by NWS

Home | Current Version | Previous Version | Graphics & Text | Print | Product List | Glossary On
Versions: 1 2 3 4 5 6 7 8 9 10 11 12 13 14 15 16 17 18 19
000
FTUS43 KIWX 161100
TAFSBN
TAF
KSBN 161139Z 1612/1712 22006KT 2SM -RA BR OVC004
     FM161700 27012G20KT 4SM BR VCSH OVC006
     FM162000 29015G24KT P6SM OVC010
     FM170400 29014G23KT P6SM OVC020=

USA.gov is the U.S. government's official web portal to all federal, state and local government web resources and services.